Portada
METAR-TAF:

METAR-TAF

Aeroports :

Aeroport de Vigo

Vigo, Espanya

latitud: 42-13N, longitud: 008-38W, altitud: 264 m

Observació

L'informe es va fer fa 39 minuts, a les 17:30 UTC
Vent 10 kt del Nord/Nord-Oest, variant entre Nord-Oest i Nord
Temperatura 20°C
Humitat 68%
Pressió 1016 hPa
Visibilitat 10 km o més
Escasses núvols a una alçada de 3000 ft

METAR: LEVX 191730Z 34010KT 310V010 9999 FEW030 20/14 Q1016 NOSIG

Hora: 20:09 (18:09 UTC)

Pronòstic

L'informe es va fer fa 1 hora i 9 minuts, a les 17:00 UTC
Pronòstic vàlid del 19 a les 18 UTC al 20 a les 18 UTC
Vent 7 kt del Nord-Est
Visibilitat 10 km o més
sense núvols per sota de 1500 mi sense presència de cumulonimbus.

TAF: LEVX 191700Z 1918/2018 04007KT CAVOK TX23/2014Z TN13/2007Z

Observacions i pronòstics meteorològics de més de 4000 aeroports (METAR i TAF).

Les estacions disponibles són els punts grocs i vermells al mapa.

Posi el ratolí al punt desitjat per veure el nom de l'estació.

Feu clic per veure les observacions i els pronòstics meteorològics.

Per canviar el mapa: feu clic els botons verds amb una creu de color negre per apropar; al botó verd amb un guió per allunyar la imatge; o en les fletxes verdes per a mapes adjacents.


METAR-TAF: